TimeCDT,TemperatureF,Dew PointF,Humidity,Sea Level PressureIn,VisibilityMPH,Wind Direction,Wind SpeedMPH,Gust SpeedMPH,PrecipitationIn,Events,Conditions,WindDirDegrees,DateUTC
12:53 AM,64.9,60.1,84,29.91,10.0,SSE,6.9,-,N/A,,Mostly Cloudy,160,2013-03-10 06:53:00
1:01 AM,64.4,60.8,88,29.90,10.0,SSE,5.8,-,N/A,,Scattered Clouds,160,2013-03-10 07:01:00
1:53 AM,62.1,59.0,90,29.89,10.0,SE,8.1,-,N/A,,Partly Cloudy,140,2013-03-10 07:53:00
3:53 AM,62.1,60.1,93,29.84,10.0,SE,6.9,-,N/A,,Scattered Clouds,140,2013-03-10 08:53:00
4:39 AM,62.6,60.8,94,29.83,10.0,SSE,8.1,-,N/A,,Mostly Cloudy,150,2013-03-10 09:39:00
4:53 AM,63.0,61.0,93,29.84,10.0,SSE,6.9,-,N/A,,Overcast,160,2013-03-10 09:53:00
5:53 AM,62.1,60.1,93,29.83,10.0,SE,8.1,-,N/A,,Overcast,140,2013-03-10 10:53:00
6:08 AM,62.6,60.8,94,29.81,10.0,SE,9.2,-,N/A,,Mostly Cloudy,130,2013-03-10 11:08:00
7:53 AM,62.1,61.0,96,29.86,8.0,SE,6.9,-,0.00,Rain,Light Rain,140,2013-03-10 12:53:00
8:53 AM,64.0,62.1,93,29.86,9.0,SE,10.4,-,0.00,,Scattered Clouds,140,2013-03-10 13:53:00
9:53 AM,68.0,63.0,84,29.85,10.0,SSE,21.9,28.8,N/A,,Scattered Clouds,150,2013-03-10 14:53:00
10:53 AM,69.1,62.1,78,29.83,10.0,SSE,16.1,25.3,N/A,,Overcast,160,2013-03-10 15:53:00
11:53 AM,71.1,61.0,70,29.83,9.0,South,15.0,23.0,N/A,,Overcast,180,2013-03-10 16:53:00
12:31 PM,57.2,53.6,88,29.88,10.0,NW,19.6,26.5,0.00,Rain,Light Rain,310,2013-03-10 17:31:00
12:51 PM,53.6,53.6,100,29.88,2.5,NW,13.8,24.2,0.05,Rain,Heavy Rain,320,2013-03-10 17:51:00
12:53 PM,54.0,53.1,97,29.89,2.5,NW,12.7,20.7,0.05,Rain,Heavy Rain,320,2013-03-10 17:53:00
1:39 PM,55.4,53.6,94,29.89,2.5,NW,11.5,-,0.05,Rain,Light Rain,310,2013-03-10 18:39:00
1:53 PM,55.0,54.0,96,29.90,2.5,NW,8.1,-,0.05,Rain,Light Rain,320,2013-03-10 18:53:00
1:59 PM,55.4,53.6,94,29.88,8.0,NW,6.9,-,0.01,Rain,Light Rain,310,2013-03-10 18:59:00
2:20 PM,55.4,53.6,94,29.88,10.0,NW,10.4,-,0.01,Rain,Light Rain,310,2013-03-10 19:20:00
2:53 PM,55.0,54.0,96,29.88,10.0,NW,6.9,-,0.01,,Overcast,310,2013-03-10 19:53:00
3:53 PM,55.9,54.0,93,29.88,10.0,NW,8.1,-,0.00,,Overcast,310,2013-03-10 20:53:00
4:53 PM,55.9,53.1,90,29.87,10.0,Calm,Calm,-,0.01,,Overcast,0,2013-03-10 21:53:00
5:53 PM,57.0,53.1,87,29.86,10.0,Calm,Calm,-,0.00,Rain,Light Rain,0,2013-03-10 22:53:00
6:53 PM,55.9,54.0,93,29.87,10.0,Calm,Calm,-,0.00,Rain,Light Rain,0,2013-03-10 23:53:00
7:53 PM,55.9,54.0,93,29.89,10.0,Calm,Calm,-,0.00,Rain,Light Rain,0,2013-03-11 00:53:00
9:53 PM,55.0,54.0,96,29.94,10.0,SW,3.5,-,N/A,,Overcast,230,2013-03-11 02:53:00
10:20 PM,55.4,53.6,94,29.93,10.0,Calm,Calm,-,N/A,,Overcast,0,2013-03-11 03:20:00
10:53 PM,55.0,52.0,89,29.96,10.0,WNW,16.1,21.9,N/A,,Overcast,300,2013-03-11 03:53:00
11:53 PM,51.1,41.0,68,29.98,10.0,NW,21.9,28.8,N/A,,Overcast,310,2013-03-11 04:53:00
12:53 AM,48.0,37.0,66,30.01,10.0,NW,15.0,-,N/A,,Overcast,310,2013-03-11 05:53:00